createdAt,value
2022-08-24T00:01:58.630Z,27.08
2022-08-24T00:04:26.908Z,27.01
2022-08-24T00:06:56.613Z,26.96
2022-08-24T00:09:24.679Z,26.90
2022-08-24T00:11:54.115Z,26.85
2022-08-24T00:14:22.172Z,26.83
2022-08-24T00:16:50.425Z,26.80
2022-08-24T00:19:18.990Z,26.73
2022-08-24T00:21:47.247Z,26.68
2022-08-24T00:24:15.717Z,26.63
2022-08-24T00:26:43.854Z,26.57
2022-08-24T00:29:15.461Z,26.55
2022-08-24T00:31:43.559Z,26.50
2022-08-24T00:34:13.859Z,26.48
2022-08-24T00:36:43.091Z,26.42
2022-08-24T00:39:12.191Z,26.40
2022-08-24T00:41:42.966Z,26.37
2022-08-24T00:44:11.772Z,26.33
2022-08-24T00:46:47.021Z,26.27
2022-08-24T00:49:23.746Z,26.23
2022-08-24T00:51:57.794Z,26.21
2022-08-24T00:54:30.478Z,26.16
2022-08-24T00:57:03.598Z,26.12
2022-08-24T00:59:37.753Z,26.07
2022-08-24T01:02:15.649Z,25.99
2022-08-24T01:04:49.166Z,25.94
2022-08-24T01:07:17.806Z,25.90
2022-08-24T01:09:46.393Z,25.84
2022-08-24T01:12:14.617Z,25.80
2022-08-24T01:14:42.690Z,25.72
2022-08-24T01:17:33.916Z,25.66
2022-08-24T01:20:07.273Z,25.59
2022-08-24T01:22:47.679Z,25.50
2022-08-24T01:25:17.602Z,25.46
2022-08-24T01:27:46.373Z,25.38
2022-08-24T01:30:17.395Z,25.34
2022-08-24T01:32:54.618Z,25.25
2022-08-24T01:35:23.202Z,25.19
2022-08-24T01:37:52.804Z,25.14
2022-08-24T01:40:23.233Z,25.10
2022-08-24T01:42:53.975Z,25.09
2022-08-24T01:45:23.013Z,25.07
2022-08-24T01:47:51.399Z,25.03
2022-08-24T01:50:19.433Z,25.00
2022-08-24T01:53:04.757Z,24.97
2022-08-24T01:55:35.836Z,24.97
2022-08-24T01:58:04.722Z,24.95
2022-08-24T02:00:33.398Z,24.95
2022-08-24T02:03:02.202Z,24.95
2022-08-24T02:05:31.495Z,24.92
2022-08-24T02:08:00.336Z,24.90
2022-08-24T02:10:29.409Z,24.87
2022-08-24T02:13:00.116Z,24.84
2022-08-24T02:15:31.865Z,24.82
2022-08-24T02:18:01.121Z,24.75
2022-08-24T02:20:30.244Z,24.72
2022-08-24T02:22:58.780Z,24.68
2022-08-24T02:25:30.506Z,24.62
2022-08-24T02:28:01.771Z,24.59
2022-08-24T02:30:30.978Z,24.56
2022-08-24T02:32:59.725Z,24.51
2022-08-24T02:35:29.310Z,24.48
2022-08-24T02:37:58.060Z,24.46
2022-08-24T02:40:28.165Z,24.43
2022-08-24T02:42:57.427Z,24.38
2022-08-24T02:45:27.428Z,24.34
2022-08-24T02:47:55.858Z,24.31
2022-08-24T02:50:25.234Z,24.28
2022-08-24T02:52:54.292Z,24.25
2022-08-24T02:55:23.045Z,24.21
2022-08-24T02:57:53.261Z,24.19
2022-08-24T03:00:23.834Z,24.18
2022-08-24T03:02:53.470Z,24.13
2022-08-24T03:05:23.433Z,24.11
2022-08-24T03:07:52.393Z,24.06
2022-08-24T03:10:21.583Z,24.03
2022-08-24T03:12:49.736Z,23.92
2022-08-24T03:15:22.557Z,23.86
2022-08-24T03:17:50.845Z,23.82
2022-08-24T03:20:22.968Z,23.79
2022-08-24T03:22:51.813Z,23.75
2022-08-24T03:25:21.636Z,23.72
2022-08-24T03:27:50.302Z,23.69
2022-08-24T03:30:19.168Z,23.65
2022-08-24T03:32:49.537Z,23.60
2022-08-24T03:35:21.866Z,23.59
2022-08-24T03:37:50.889Z,23.55
2022-08-24T03:40:22.328Z,23.53
2022-08-24T03:42:53.722Z,23.47
2022-08-24T03:45:22.869Z,23.45
2022-08-24T03:47:51.173Z,23.41
2022-08-24T03:50:21.413Z,23.38
2022-08-24T03:52:50.408Z,23.35
2022-08-24T03:55:19.527Z,23.29
2022-08-24T03:57:48.501Z,23.29
2022-08-24T04:00:18.083Z,23.25
2022-08-24T04:02:55.165Z,23.21
2022-08-24T04:05:27.071Z,23.22
2022-08-24T04:07:55.173Z,23.21
2022-08-24T04:10:23.233Z,23.21
2022-08-24T04:12:51.290Z,23.21
2022-08-24T04:15:24.478Z,23.20
2022-08-24T04:17:52.734Z,23.21
2022-08-24T04:20:21.294Z,23.21
2022-08-24T04:22:53.712Z,23.20
2022-08-24T04:25:25.130Z,23.20
2022-08-24T04:27:53.534Z,23.18
2022-08-24T04:30:24.708Z,23.18
2022-08-24T04:33:15.110Z,23.15
2022-08-24T04:38:34.668Z,23.02
2022-08-24T04:41:41.893Z,22.95
2022-08-24T04:44:12.008Z,22.99
2022-08-24T04:46:40.930Z,23.03
2022-08-24T04:49:10.382Z,23.01
2022-08-24T04:51:39.804Z,23.01
2022-08-24T04:54:10.775Z,23.00
2022-08-24T04:56:40.054Z,22.99
2022-08-24T04:59:08.500Z,22.98
2022-08-24T05:01:37.237Z,22.98
2022-08-24T05:04:07.519Z,22.97
2022-08-24T05:06:36.403Z,22.99
2022-08-24T05:09:06.884Z,23.00
2022-08-24T05:11:40.403Z,23.01
2022-08-24T05:14:11.257Z,23.02
2022-08-24T05:16:52.424Z,23.02
2022-08-24T05:19:21.866Z,23.00
2022-08-24T05:21:50.284Z,23.05
2022-08-24T05:24:19.671Z,23.03
2022-08-24T05:26:50.079Z,23.05
2022-08-24T05:29:19.153Z,23.16
2022-08-24T05:31:52.149Z,23.22
2022-08-24T05:34:20.500Z,23.36
2022-08-24T05:36:50.330Z,23.43
2022-08-24T05:39:38.088Z,23.54
2022-08-24T05:42:11.243Z,23.64
2022-08-24T05:44:46.278Z,23.74
2022-08-24T05:47:18.262Z,23.84
2022-08-24T05:49:48.109Z,23.94
2022-08-24T05:52:17.518Z,24.05
2022-08-24T05:54:53.610Z,24.12
2022-08-24T05:57:24.656Z,24.20
2022-08-24T06:00:09.005Z,24.32
2022-08-24T06:02:44.619Z,24.43
2022-08-24T06:05:14.201Z,24.55
2022-08-24T06:07:43.661Z,24.63
2022-08-24T06:10:35.322Z,24.72
2022-08-24T06:13:05.444Z,24.80
2022-08-24T06:15:34.542Z,24.88
2022-08-24T06:18:03.307Z,24.98
2022-08-24T06:20:31.824Z,25.07
2022-08-24T06:23:00.472Z,25.18
2022-08-24T06:25:57.401Z,25.22
2022-08-24T06:28:27.648Z,25.39
2022-08-24T06:31:03.708Z,25.48
2022-08-24T06:33:32.196Z,25.58
2022-08-24T06:36:00.794Z,25.62
2022-08-24T06:38:30.774Z,25.71
2022-08-24T06:41:00.219Z,25.77
2022-08-24T06:43:30.165Z,25.87
2022-08-24T06:46:02.995Z,25.97
2022-08-24T06:48:36.262Z,26.10
2022-08-24T06:51:10.585Z,26.18
2022-08-24T06:53:40.771Z,26.25
2022-08-24T06:56:10.197Z,26.46
2022-08-24T06:58:40.422Z,26.52
2022-08-24T07:01:16.105Z,26.64
2022-08-24T07:03:45.281Z,26.73
2022-08-24T07:06:28.009Z,26.87
2022-08-24T07:09:00.485Z,27.02
2022-08-24T07:11:29.195Z,27.15
2022-08-24T07:13:59.114Z,27.24
2022-08-24T07:16:27.930Z,27.28
2022-08-24T07:19:02.454Z,27.36
2022-08-24T07:21:32.478Z,27.58
2022-08-24T07:24:02.437Z,27.88
2022-08-24T07:26:34.845Z,28.28
2022-08-24T07:29:13.601Z,28.80
2022-08-24T07:31:50.252Z,29.34
2022-08-24T07:34:29.706Z,29.71
2022-08-24T07:37:00.027Z,30.06
2022-08-24T07:39:28.589Z,30.47
2022-08-24T07:42:17.213Z,30.63
2022-08-24T07:44:48.566Z,30.69
2022-08-24T07:50:10.696Z,31.00
2022-08-24T07:52:39.146Z,31.28
2022-08-24T07:55:09.183Z,31.54
2022-08-24T07:57:38.566Z,31.79
2022-08-24T08:00:12.721Z,32.08
2022-08-24T08:02:47.307Z,32.25
2022-08-24T08:05:20.558Z,32.60
2022-08-24T08:07:52.391Z,32.92
2022-08-24T08:10:23.454Z,33.02
2022-08-24T08:12:53.556Z,32.89
2022-08-24T08:15:23.542Z,33.08
2022-08-24T08:17:58.806Z,33.36
2022-08-24T08:20:27.299Z,33.42
2022-08-24T08:23:13.986Z,33.36
2022-08-24T08:26:03.339Z,33.28
2022-08-24T08:28:48.729Z,33.32
2022-08-24T08:31:19.011Z,33.45
2022-08-24T08:33:48.498Z,33.51
2022-08-24T08:36:17.306Z,33.77
2022-08-24T08:38:50.858Z,33.85
2022-08-24T08:41:56.418Z,33.72
2022-08-24T08:44:38.681Z,33.78
2022-08-24T08:47:34.102Z,33.82
2022-08-24T08:50:17.259Z,34.03
2022-08-24T08:53:18.758Z,34.25
2022-08-24T08:55:59.229Z,34.40
2022-08-24T08:58:57.100Z,34.57
2022-08-24T09:01:46.635Z,34.84
2022-08-24T09:04:49.286Z,35.26
2022-08-24T09:07:28.348Z,35.68
2022-08-24T09:10:51.984Z,35.99
2022-08-24T09:13:35.671Z,36.31
2022-08-24T09:16:19.700Z,36.27
2022-08-24T09:19:14.945Z,36.44
2022-08-24T09:21:59.415Z,36.73
2022-08-24T09:24:51.033Z,36.85
2022-08-24T09:27:51.695Z,37.17
2022-08-24T09:30:24.703Z,37.49
2022-08-24T09:33:01.194Z,37.69
2022-08-24T09:35:36.709Z,38.07
2022-08-24T09:38:19.001Z,38.51
2022-08-24T09:41:11.227Z,38.86
2022-08-24T09:44:12.850Z,39.33
2022-08-24T09:47:12.002Z,39.72
2022-08-24T09:49:58.761Z,39.83
2022-08-24T09:53:09.155Z,39.71
2022-08-24T09:56:00.121Z,40.12
2022-08-24T09:58:44.969Z,40.38
2022-08-24T10:01:21.530Z,40.45
2022-08-24T10:04:05.988Z,40.28
2022-08-24T10:06:43.823Z,40.32
2022-08-24T10:09:42.811Z,40.65
2022-08-24T10:12:22.773Z,40.85
2022-08-24T10:14:58.932Z,40.78
2022-08-24T10:17:37.077Z,40.95
2022-08-24T10:20:17.775Z,41.34
2022-08-24T10:23:11.580Z,41.80
2022-08-24T10:25:47.866Z,42.21
2022-08-24T10:28:45.789Z,42.54
2022-08-24T10:31:19.719Z,42.88
2022-08-24T10:34:00.392Z,42.93
2022-08-24T10:36:46.027Z,42.84
2022-08-24T10:39:42.880Z,42.78
2022-08-24T10:43:06.990Z,42.80
2022-08-24T10:46:29.259Z,43.17
2022-08-24T10:49:43.646Z,43.34
2022-08-24T10:52:49.085Z,43.08
2022-08-24T10:55:22.473Z,43.47
2022-08-24T10:58:19.991Z,43.64
2022-08-24T11:00:49.338Z,44.02
2022-08-24T11:03:27.932Z,44.35
2022-08-24T11:05:58.673Z,44.44
2022-08-24T11:08:29.285Z,44.57
2022-08-24T11:11:07.940Z,44.81
2022-08-24T11:13:38.034Z,45.06
2022-08-24T11:16:07.641Z,45.17
2022-08-24T11:18:51.180Z,45.13
2022-08-24T11:21:37.446Z,45.06
2022-08-24T11:24:08.554Z,44.37
2022-08-24T11:26:53.537Z,44.40
2022-08-24T11:29:23.255Z,44.47
2022-08-24T11:31:53.733Z,44.51
2022-08-24T11:34:34.682Z,44.55
2022-08-24T11:37:03.553Z,44.61
2022-08-24T11:39:35.772Z,44.43
2022-08-24T11:42:15.701Z,43.93
2022-08-24T11:44:49.922Z,43.61
2022-08-24T11:47:39.393Z,43.48
2022-08-24T11:50:20.929Z,43.68
2022-08-24T11:52:58.571Z,43.62
2022-08-24T11:55:46.867Z,44.07
2022-08-24T11:58:33.670Z,44.69
2022-08-24T12:01:09.567Z,44.83
2022-08-24T12:03:58.350Z,44.75
2022-08-24T12:06:41.546Z,44.87
2022-08-24T12:09:28.394Z,45.14
2022-08-24T12:12:03.807Z,45.33
2022-08-24T12:14:38.787Z,45.57
2022-08-24T12:17:16.886Z,45.83
2022-08-24T12:19:50.331Z,46.08
2022-08-24T12:22:22.071Z,46.27
2022-08-24T12:24:52.593Z,46.37
2022-08-24T12:27:25.606Z,46.39
2022-08-24T12:30:01.418Z,46.36
2022-08-24T12:32:39.565Z,46.39
2022-08-24T12:35:12.577Z,46.34
2022-08-24T12:37:45.228Z,46.36
2022-08-24T12:40:24.422Z,46.35
2022-08-24T12:42:56.625Z,46.42
2022-08-24T12:45:26.035Z,46.44
2022-08-24T12:48:03.765Z,46.37
2022-08-24T12:50:41.109Z,46.32
2022-08-24T12:53:39.263Z,46.25
2022-08-24T12:56:30.170Z,46.18
2022-08-24T12:59:16.031Z,45.91
2022-08-24T13:01:48.479Z,45.57
2022-08-24T13:04:31.373Z,45.18
2022-08-24T13:07:03.614Z,44.76
2022-08-24T13:09:36.942Z,44.45
2022-08-24T13:12:42.849Z,44.21
2022-08-24T13:15:48.371Z,44.00
2022-08-24T13:18:50.719Z,43.73
2022-08-24T13:21:42.367Z,43.54
2022-08-24T13:24:52.830Z,43.43
2022-08-24T13:28:01.434Z,43.32
2022-08-24T13:30:36.619Z,43.23
2022-08-24T13:33:09.637Z,43.11
2022-08-24T13:35:58.299Z,43.10
2022-08-24T13:38:55.945Z,43.22
2022-08-24T13:41:55.297Z,43.32
2022-08-24T13:44:36.366Z,43.54
2022-08-24T13:47:16.885Z,43.58
2022-08-24T13:50:02.249Z,43.00
2022-08-24T13:52:44.852Z,42.57
2022-08-24T13:55:45.668Z,41.90
2022-08-24T13:58:27.017Z,41.58
2022-08-24T14:01:01.933Z,41.48
2022-08-24T14:03:53.435Z,41.64
2022-08-24T14:06:39.259Z,41.90
2022-08-24T14:09:26.859Z,42.01
2022-08-24T14:12:23.356Z,42.11
2022-08-24T14:15:08.467Z,42.13
2022-08-24T14:17:55.357Z,41.99
2022-08-24T14:20:51.629Z,41.96
2022-08-24T14:23:36.531Z,41.91
2022-08-24T14:26:42.469Z,41.92
2022-08-24T14:29:40.673Z,41.72
2022-08-24T14:32:36.179Z,41.46
2022-08-24T14:35:26.149Z,41.21
2022-08-24T14:38:16.862Z,41.04
2022-08-24T14:41:03.093Z,40.97
2022-08-24T14:43:46.046Z,40.97
2022-08-24T14:46:24.167Z,40.96
2022-08-24T14:49:09.220Z,40.86
2022-08-24T14:51:56.710Z,40.87
2022-08-24T14:54:35.894Z,40.96
2022-08-24T14:57:28.814Z,40.86
2022-08-24T15:00:06.907Z,40.09
2022-08-24T15:03:17.006Z,39.82
2022-08-24T15:06:09.535Z,39.81
2022-08-24T15:08:43.957Z,39.37
2022-08-24T15:11:14.749Z,39.51
2022-08-24T15:13:48.508Z,39.65
2022-08-24T15:16:22.463Z,39.33
2022-08-24T15:18:58.744Z,39.32
2022-08-24T15:21:37.359Z,39.47
2022-08-24T15:24:16.723Z,39.63
2022-08-24T15:27:02.251Z,39.48
2022-08-24T15:29:33.450Z,39.55
2022-08-24T15:32:07.273Z,39.62
2022-08-24T15:34:40.232Z,39.65
2022-08-24T15:37:08.739Z,39.68
2022-08-24T15:39:38.613Z,39.76
2022-08-24T15:42:11.703Z,39.83
2022-08-24T15:44:43.119Z,39.54
2022-08-24T15:47:22.590Z,39.44
2022-08-24T15:49:55.186Z,39.58
2022-08-24T15:52:50.181Z,39.65
2022-08-24T15:55:36.602Z,39.64
2022-08-24T15:58:36.502Z,39.68
2022-08-24T16:01:38.657Z,39.71
2022-08-24T16:04:09.617Z,39.68
2022-08-24T16:06:41.795Z,39.65
2022-08-24T16:09:15.052Z,39.61
2022-08-24T16:11:50.306Z,39.59
2022-08-24T16:14:28.546Z,39.57
2022-08-24T16:16:59.403Z,39.52
2022-08-24T16:19:30.514Z,39.48
2022-08-24T16:22:01.712Z,39.47
2022-08-24T16:24:33.519Z,39.43
2022-08-24T16:27:07.379Z,39.41
2022-08-24T16:29:47.990Z,39.34
2022-08-24T16:32:21.598Z,39.30
2022-08-24T16:34:57.752Z,39.22
2022-08-24T16:37:26.302Z,39.12
2022-08-24T16:39:54.652Z,39.00
2022-08-24T16:42:27.305Z,38.85
2022-08-24T16:44:56.533Z,38.74
2022-08-24T16:47:25.385Z,38.62
2022-08-24T16:49:53.437Z,38.52
2022-08-24T16:52:21.979Z,38.44
2022-08-24T16:54:50.566Z,38.36
2022-08-24T16:57:22.850Z,38.23
2022-08-24T16:59:53.517Z,38.09
2022-08-24T17:02:22.953Z,37.92
2022-08-24T17:04:51.355Z,37.81
2022-08-24T17:07:24.529Z,37.72
2022-08-24T17:09:53.262Z,37.58
2022-08-24T17:12:21.730Z,37.43
2022-08-24T17:14:49.878Z,37.29
2022-08-24T17:17:21.650Z,37.15
2022-08-24T17:19:51.054Z,37.01
2022-08-24T17:22:19.102Z,36.88
2022-08-24T17:24:47.445Z,36.78
2022-08-24T17:27:16.499Z,36.64
2022-08-24T17:29:45.869Z,36.53
2022-08-24T17:32:14.930Z,36.36
2022-08-24T17:34:44.463Z,36.13
2022-08-24T17:37:13.046Z,35.86
2022-08-24T17:39:41.189Z,35.65
2022-08-24T17:42:27.900Z,35.45
2022-08-24T17:44:57.653Z,35.26
2022-08-24T17:47:25.927Z,35.04
2022-08-24T17:49:55.418Z,34.92
2022-08-24T17:52:23.578Z,34.76
2022-08-24T17:54:51.565Z,34.62
2022-08-24T17:57:28.803Z,34.45
2022-08-24T17:59:56.839Z,34.34
2022-08-24T18:02:24.918Z,34.21
2022-08-24T18:04:53.008Z,34.11
2022-08-24T18:07:36.182Z,33.95
2022-08-24T18:10:12.157Z,33.81
2022-08-24T18:12:40.759Z,33.67
2022-08-24T18:15:09.671Z,33.53
2022-08-24T18:17:40.718Z,33.46
2022-08-24T18:20:11.130Z,33.33
2022-08-24T18:22:44.556Z,33.18
2022-08-24T18:25:13.641Z,33.07
2022-08-24T18:27:43.232Z,33.00
2022-08-24T18:30:17.194Z,32.92
2022-08-24T18:32:46.372Z,32.90
2022-08-24T18:35:14.619Z,32.85
2022-08-24T18:37:44.231Z,32.72
2022-08-24T18:40:21.102Z,32.63
2022-08-24T18:42:50.909Z,32.55
2022-08-24T18:45:19.610Z,32.47
2022-08-24T18:47:53.531Z,32.37
2022-08-24T18:50:22.178Z,32.28
2022-08-24T18:52:51.729Z,32.20
2022-08-24T18:55:19.957Z,32.13
2022-08-24T18:57:48.323Z,32.09
2022-08-24T19:00:17.028Z,32.05
2022-08-24T19:02:45.507Z,31.99
2022-08-24T19:05:17.636Z,31.90
2022-08-24T19:07:47.274Z,31.78
2022-08-24T19:10:19.458Z,31.63
2022-08-24T19:12:51.630Z,31.59
2022-08-24T19:15:32.634Z,31.51
2022-08-24T19:18:07.645Z,31.48
2022-08-24T19:20:36.284Z,31.35
2022-08-24T19:23:09.325Z,31.27
2022-08-24T19:25:40.594Z,31.24
2022-08-24T19:28:08.673Z,31.12
2022-08-24T19:30:37.442Z,31.09
2022-08-24T19:33:11.781Z,31.08
2022-08-24T19:35:42.254Z,31.00
2022-08-24T19:38:10.272Z,30.94
2022-08-24T19:40:39.949Z,30.90
2022-08-24T19:43:16.123Z,30.81
2022-08-24T19:46:01.517Z,30.78
2022-08-24T19:48:30.214Z,30.68
2022-08-24T19:50:59.929Z,30.60
2022-08-24T19:53:31.375Z,30.54
2022-08-24T19:56:00.936Z,30.47
2022-08-24T19:58:32.114Z,30.39
2022-08-24T20:01:05.168Z,30.31
2022-08-24T20:03:33.304Z,30.26
2022-08-24T20:06:01.310Z,30.19
2022-08-24T20:08:29.386Z,30.13
2022-08-24T20:11:00.450Z,30.05
2022-08-24T20:13:29.985Z,29.95
2022-08-24T20:15:58.850Z,29.90
2022-08-24T20:18:31.201Z,29.88
2022-08-24T20:20:59.771Z,29.83
2022-08-24T20:23:28.085Z,29.77
2022-08-24T20:25:56.613Z,29.72
2022-08-24T20:28:30.132Z,29.66
2022-08-24T20:31:01.467Z,29.60
2022-08-24T20:33:29.543Z,29.53
2022-08-24T20:35:57.932Z,29.50
2022-08-24T20:38:26.854Z,29.43
2022-08-24T20:41:00.765Z,29.36
2022-08-24T20:43:28.954Z,29.35
2022-08-24T20:45:57.610Z,29.30
2022-08-24T20:48:30.517Z,29.23
2022-08-24T20:50:58.833Z,29.17
2022-08-24T20:53:27.418Z,29.15
2022-08-24T20:55:57.628Z,29.09
2022-08-24T20:58:26.571Z,29.06
2022-08-24T21:00:54.768Z,29.02
2022-08-24T21:03:23.016Z,28.99
2022-08-24T21:05:52.624Z,28.98
2022-08-24T21:08:20.994Z,28.92
2022-08-24T21:10:49.249Z,28.90
2022-08-24T21:13:17.334Z,28.83
2022-08-24T21:15:46.080Z,28.78
2022-08-24T21:18:14.254Z,28.82
2022-08-24T21:20:46.092Z,28.82
2022-08-24T21:23:32.649Z,28.84
2022-08-24T21:26:02.009Z,28.86
2022-08-24T21:28:30.523Z,28.91
2022-08-24T21:31:02.475Z,28.94
2022-08-24T21:33:50.893Z,28.98
2022-08-24T21:36:20.575Z,29.03
2022-08-24T21:38:51.995Z,29.05
2022-08-24T21:41:21.696Z,29.11
2022-08-24T21:43:49.803Z,29.17
2022-08-24T21:46:18.329Z,29.17
2022-08-24T21:48:46.842Z,29.21
2022-08-24T21:51:14.880Z,29.26
2022-08-24T21:53:43.029Z,29.29
2022-08-24T21:56:12.481Z,29.34
2022-08-24T21:58:40.551Z,29.35
2022-08-24T22:01:08.570Z,29.35
2022-08-24T22:03:40.140Z,29.36
2022-08-24T22:06:09.613Z,29.39
2022-08-24T22:08:37.867Z,29.41
2022-08-24T22:11:06.617Z,29.38
2022-08-24T22:13:36.714Z,29.37
2022-08-24T22:16:05.700Z,29.38
2022-08-24T22:18:34.234Z,29.39
2022-08-24T22:21:06.709Z,29.38
2022-08-24T22:23:34.949Z,29.35
2022-08-24T22:26:03.469Z,29.33
2022-08-24T22:28:31.481Z,29.29
2022-08-24T22:31:01.097Z,29.26
2022-08-24T22:33:29.851Z,29.19
2022-08-24T22:35:57.869Z,29.17
2022-08-24T22:38:25.902Z,29.16
2022-08-24T22:40:57.022Z,29.11
2022-08-24T22:43:45.023Z,29.02
2022-08-24T22:46:14.649Z,28.97
2022-08-24T22:48:42.919Z,28.92
2022-08-24T22:51:11.585Z,28.88
2022-08-24T22:53:40.747Z,28.85
2022-08-24T22:56:16.104Z,28.79
2022-08-24T22:58:44.179Z,28.75
2022-08-24T23:01:21.148Z,28.75
2022-08-24T23:03:50.311Z,28.74
2022-08-24T23:06:18.745Z,28.71
2022-08-24T23:08:46.904Z,28.67
2022-08-24T23:11:15.674Z,28.65
2022-08-24T23:13:44.153Z,28.61
2022-08-24T23:16:14.224Z,28.56
2022-08-24T23:19:01.231Z,28.48
2022-08-24T23:21:29.538Z,28.38
2022-08-24T23:23:57.665Z,28.38
2022-08-24T23:26:26.017Z,28.33
2022-08-24T23:28:55.234Z,28.32
2022-08-24T23:31:24.623Z,28.28
2022-08-24T23:33:54.263Z,28.26
2022-08-24T23:36:25.072Z,28.19
2022-08-24T23:38:55.240Z,28.15
2022-08-24T23:41:25.957Z,28.13
2022-08-24T23:43:54.776Z,28.10
2022-08-24T23:46:24.029Z,28.06
2022-08-24T23:48:55.212Z,27.76
2022-08-24T23:51:24.942Z,27.66
2022-08-24T23:53:53.173Z,27.61
2022-08-24T23:56:25.293Z,27.59
2022-08-24T23:58:54.142Z,27.57
